createdAt,value
2022-11-04T00:00:45.024Z,100499.75
2022-11-04T00:02:46.865Z,100486.13
2022-11-04T00:04:48.692Z,100499.50
2022-11-04T00:06:51.014Z,100585.44
2022-11-04T00:08:55.319Z,100491.47
2022-11-04T00:10:58.869Z,100548.63
2022-11-04T00:13:00.589Z,100583.81
2022-11-04T00:15:02.375Z,100486.63
2022-11-04T00:17:05.471Z,100462.91
2022-11-04T00:19:07.325Z,100468.41
2022-11-04T00:21:09.078Z,100568.16
2022-11-04T00:23:11.384Z,100559.53
2022-11-04T00:25:13.776Z,100465.94
2022-11-04T00:27:18.469Z,100528.00
2022-11-04T00:29:20.259Z,100533.81
2022-11-04T00:31:24.344Z,100520.59
2022-11-04T00:33:26.165Z,100518.59
2022-11-04T00:35:27.941Z,100473.88
2022-11-04T00:37:29.737Z,100550.66
2022-11-04T00:39:31.647Z,100498.59
2022-11-04T00:41:33.369Z,100496.50
2022-11-04T00:43:35.278Z,100502.28
2022-11-04T00:45:37.158Z,100451.16
2022-11-04T00:47:38.857Z,100536.06
2022-11-04T00:49:40.564Z,100538.44
2022-11-04T00:51:42.373Z,100533.50
2022-11-04T00:53:44.264Z,100530.56
2022-11-04T00:55:46.060Z,100538.78
2022-11-04T00:57:47.937Z,100527.09
2022-11-04T00:59:49.794Z,100532.91
2022-11-04T01:01:51.805Z,100525.00
2022-11-04T01:03:54.146Z,100441.63
2022-11-04T01:05:58.690Z,100480.88
2022-11-04T01:08:00.638Z,100479.22
2022-11-04T01:10:02.530Z,100495.91
2022-11-04T01:12:04.581Z,100456.56
2022-11-04T01:14:06.473Z,100468.00
2022-11-04T01:16:10.798Z,100494.84
2022-11-04T01:18:12.667Z,100287.59
2022-11-04T01:20:14.587Z,100479.84
2022-11-04T01:22:16.438Z,100374.25
2022-11-04T01:24:18.460Z,100390.97
2022-11-04T01:26:23.926Z,100503.75
2022-11-04T01:28:26.016Z,100459.25
2022-11-04T01:30:27.849Z,100469.81
2022-11-04T01:32:29.680Z,100480.69
2022-11-04T01:34:31.457Z,100456.50
2022-11-04T01:36:33.221Z,100438.81
2022-11-04T01:38:35.381Z,100356.66
2022-11-04T01:40:38.634Z,100342.47
2022-11-04T01:42:40.657Z,100383.91
2022-11-04T01:44:42.348Z,100450.66
2022-11-04T01:46:52.695Z,100328.59
2022-11-04T01:49:02.089Z,100345.00
2022-11-04T01:51:07.859Z,100298.31
2022-11-04T01:53:31.699Z,100446.50
2022-11-04T01:55:36.881Z,100415.09
2022-11-04T01:57:42.393Z,100383.38
2022-11-04T01:59:44.319Z,100343.63
2022-11-04T02:01:46.512Z,100443.03
2022-11-04T02:03:56.096Z,100395.88
2022-11-04T02:05:58.481Z,100415.91
2022-11-04T02:08:02.711Z,100438.13
2022-11-04T02:10:04.928Z,100418.69
2022-11-04T02:12:07.078Z,100432.44
2022-11-04T02:14:08.779Z,100394.50
2022-11-04T02:16:33.338Z,100423.56
2022-11-04T02:19:02.063Z,100415.75
2022-11-04T02:21:36.867Z,100364.63
2022-11-04T02:23:38.393Z,100395.31
2022-11-04T02:26:12.032Z,100391.59
2022-11-04T02:28:35.419Z,100397.97
2022-11-04T02:30:50.507Z,100362.53
2022-11-04T02:33:19.697Z,100298.03
2022-11-04T02:35:44.401Z,100285.72
2022-11-04T02:38:10.083Z,100268.19
2022-11-04T02:40:22.082Z,100386.31
2022-11-04T02:42:42.450Z,100391.44
2022-11-04T02:44:55.764Z,100357.50
2022-11-04T02:47:06.362Z,100394.06
2022-11-04T02:49:19.891Z,100382.13
2022-11-04T02:51:33.280Z,100394.22
2022-11-04T02:53:41.563Z,100274.72
2022-11-04T02:55:50.384Z,100293.59
2022-11-04T02:57:56.787Z,100250.56
2022-11-04T03:00:11.010Z,100327.78
2022-11-04T03:02:18.817Z,100370.59
2022-11-04T03:04:31.050Z,100368.47
2022-11-04T03:06:34.827Z,100267.22
2022-11-04T03:08:43.788Z,100351.25
2022-11-04T03:10:52.881Z,100345.97
2022-11-04T03:12:59.771Z,100330.56
2022-11-04T03:15:06.446Z,100280.66
2022-11-04T03:17:19.727Z,100363.50
2022-11-04T03:19:38.834Z,100346.53
2022-11-04T03:21:47.587Z,100377.09
2022-11-04T03:23:49.407Z,100364.72
2022-11-04T03:25:57.940Z,100308.22
2022-11-04T03:28:43.203Z,100346.53
2022-11-04T03:30:47.834Z,100362.22
2022-11-04T03:33:19.506Z,100295.41
2022-11-04T03:35:21.438Z,100363.91
2022-11-04T03:37:23.275Z,100320.28
2022-11-04T03:39:25.532Z,100330.13
2022-11-04T03:41:46.878Z,100265.00
2022-11-04T03:43:48.802Z,100317.34
2022-11-04T03:45:51.896Z,100247.22
2022-11-04T03:47:53.960Z,100313.88
2022-11-04T03:50:27.192Z,100360.00
2022-11-04T03:52:28.953Z,100345.69
2022-11-04T03:54:30.832Z,100312.47
2022-11-04T03:56:44.291Z,100363.50
2022-11-04T03:59:14.941Z,100266.25
2022-11-04T04:01:47.746Z,100352.78
2022-11-04T04:04:00.581Z,100292.63
2022-11-04T04:06:24.735Z,100273.88
2022-11-04T04:08:38.595Z,100343.91
2022-11-04T04:10:56.810Z,100301.53
2022-11-04T04:13:03.471Z,100264.56
2022-11-04T04:15:17.774Z,100278.72
2022-11-04T04:17:19.605Z,100324.97
2022-11-04T04:19:22.170Z,100324.56
2022-11-04T04:21:31.805Z,100262.03
2022-11-04T04:23:35.601Z,100226.06
2022-11-04T04:25:37.419Z,100276.78
2022-11-04T04:27:40.869Z,100305.25
2022-11-04T04:29:45.462Z,100304.25
2022-11-04T04:31:48.443Z,100310.91
2022-11-04T04:33:50.228Z,100259.00
2022-11-04T04:35:56.330Z,100216.25
2022-11-04T04:38:04.189Z,100300.66
2022-11-04T04:40:09.025Z,100242.75
2022-11-04T04:42:11.482Z,100273.28
2022-11-04T04:44:24.438Z,100282.44
2022-11-04T04:46:27.571Z,100268.72
2022-11-04T04:48:29.392Z,100254.97
2022-11-04T04:50:38.920Z,100321.22
2022-11-04T04:52:44.534Z,100220.53
2022-11-04T04:54:46.463Z,100285.94
2022-11-04T04:56:48.179Z,100313.56
2022-11-04T04:58:49.907Z,100275.25
2022-11-04T05:00:51.697Z,100235.50
2022-11-04T05:02:53.526Z,100278.84
2022-11-04T05:04:55.313Z,100272.91
2022-11-04T05:06:57.110Z,100306.47
2022-11-04T05:08:58.853Z,100273.72
2022-11-04T05:11:01.073Z,100268.16
2022-11-04T05:13:02.936Z,100282.88
2022-11-04T05:15:05.126Z,100265.53
2022-11-04T05:17:06.844Z,100205.53
2022-11-04T05:19:08.972Z,100310.53
2022-11-04T05:21:13.831Z,100260.25
2022-11-04T05:23:15.599Z,100211.25
2022-11-04T05:25:17.747Z,100240.41
2022-11-04T05:27:20.082Z,100240.38
2022-11-04T05:29:22.163Z,100293.72
2022-11-04T05:31:24.155Z,100201.25
2022-11-04T05:33:26.084Z,100273.31
2022-11-04T05:35:27.884Z,100287.84
2022-11-04T05:37:29.840Z,100235.50
2022-11-04T05:39:31.589Z,100224.00
2022-11-04T05:41:34.351Z,100286.31
2022-11-04T05:43:36.754Z,100294.09
2022-11-04T05:45:38.514Z,100244.50
2022-11-04T05:47:40.373Z,100181.13
2022-11-04T05:49:42.179Z,100283.41
2022-11-04T05:51:43.861Z,100212.34
2022-11-04T05:53:45.919Z,100252.16
2022-11-04T05:55:47.838Z,100254.09
2022-11-04T05:57:52.093Z,100144.34
2022-11-04T05:59:56.256Z,100056.13
2022-11-04T06:02:00.866Z,100201.09
2022-11-04T06:04:04.460Z,100261.19
2022-11-04T06:06:06.191Z,100305.66
2022-11-04T06:08:08.260Z,100302.16
2022-11-04T06:10:10.868Z,100289.41
2022-11-04T06:12:15.143Z,100315.38
2022-11-04T06:14:18.783Z,100316.34
2022-11-04T06:16:21.025Z,100203.91
2022-11-04T06:18:22.788Z,100199.03
2022-11-04T06:20:24.526Z,100300.38
2022-11-04T06:22:26.366Z,100307.03
2022-11-04T06:24:28.108Z,100218.84
2022-11-04T06:26:30.280Z,100313.31
2022-11-04T06:28:32.668Z,100276.22
2022-11-04T06:30:34.459Z,100288.56
2022-11-04T06:32:36.156Z,100250.00
2022-11-04T06:34:38.127Z,100328.56
2022-11-04T06:36:39.885Z,100284.84
2022-11-04T06:38:42.165Z,100286.31
2022-11-04T06:40:43.949Z,100296.34
2022-11-04T06:42:45.698Z,100295.41
2022-11-04T06:44:47.463Z,100264.41
2022-11-04T06:46:49.186Z,100318.31
2022-11-04T06:48:51.126Z,100280.13
2022-11-04T06:50:53.566Z,100308.28
2022-11-04T06:52:55.589Z,100268.88
2022-11-04T06:54:57.287Z,100258.31
2022-11-04T06:56:59.026Z,100290.25
2022-11-04T06:59:00.969Z,100213.31
2022-11-04T07:01:07.352Z,100253.34
2022-11-04T07:03:12.962Z,100278.47
2022-11-04T07:05:14.888Z,100264.16
2022-11-04T07:07:16.636Z,100309.09
2022-11-04T07:09:19.281Z,100269.69
2022-11-04T07:11:22.597Z,100271.91
2022-11-04T07:13:24.394Z,100300.22
2022-11-04T07:15:27.563Z,100285.34
2022-11-04T07:17:29.594Z,100237.16
2022-11-04T07:19:31.369Z,100262.03
2022-11-04T07:21:33.200Z,100265.09
2022-11-04T07:23:35.494Z,100313.28
2022-11-04T07:25:37.209Z,100277.88
2022-11-04T07:27:38.961Z,100254.00
2022-11-04T07:29:41.032Z,100302.72
2022-11-04T07:31:43.961Z,100304.38
2022-11-04T07:33:45.721Z,100267.41
2022-11-04T07:35:47.607Z,100271.59
2022-11-04T07:37:49.315Z,100268.41
2022-11-04T07:39:51.000Z,100284.78
2022-11-04T07:41:58.295Z,100259.91
2022-11-04T07:44:01.073Z,100289.91
2022-11-04T07:46:11.766Z,100291.25
2022-11-04T07:48:13.566Z,100287.94
2022-11-04T07:50:15.417Z,100230.34
2022-11-04T07:52:17.221Z,100270.69
2022-11-04T07:54:19.056Z,100288.69
2022-11-04T07:56:20.818Z,100249.53
2022-11-04T07:58:23.889Z,100277.59
2022-11-04T08:00:25.702Z,100246.19
2022-11-04T08:02:32.441Z,100259.19
2022-11-04T08:04:35.822Z,100286.16
2022-11-04T08:06:37.595Z,100284.34
2022-11-04T08:08:39.913Z,100237.81
2022-11-04T08:10:41.743Z,100236.56
2022-11-04T08:12:43.491Z,100259.88
2022-11-04T08:14:45.490Z,100261.81
2022-11-04T08:16:50.870Z,100196.34
2022-11-04T08:18:53.252Z,100281.00
2022-11-04T08:20:55.007Z,100260.69
2022-11-04T08:22:56.740Z,100260.03
2022-11-04T08:24:58.557Z,100239.31
2022-11-04T08:27:00.285Z,100270.56
2022-11-04T08:29:05.701Z,100228.19
2022-11-04T08:31:18.381Z,100258.19
2022-11-04T08:33:20.242Z,100256.13
2022-11-04T08:35:21.971Z,100228.78
2022-11-04T08:37:23.815Z,100242.06
2022-11-04T08:39:25.661Z,100288.94
2022-11-04T08:41:29.928Z,100221.63
2022-11-04T08:43:32.312Z,100275.97
2022-11-04T08:45:38.314Z,100210.63
2022-11-04T08:47:40.199Z,100281.53
2022-11-04T08:49:42.644Z,100277.78
2022-11-04T08:51:45.649Z,100253.41
2022-11-04T08:53:47.526Z,100262.56
2022-11-04T08:55:49.488Z,100274.22
2022-11-04T08:57:51.205Z,100260.75
2022-11-04T08:59:53.055Z,100174.25
2022-11-04T09:01:54.910Z,100235.75
2022-11-04T09:03:56.749Z,100241.16
2022-11-04T09:05:58.684Z,100257.31
2022-11-04T09:08:00.581Z,100226.69
2022-11-04T09:10:02.277Z,100242.63
2022-11-04T09:12:04.099Z,100202.41
2022-11-04T09:14:06.707Z,100230.16
2022-11-04T09:16:10.333Z,100252.19
2022-11-04T09:18:11.925Z,100249.50
2022-11-04T09:20:13.842Z,100214.56
2022-11-04T09:22:15.595Z,100199.31
2022-11-04T09:24:17.325Z,100207.44
2022-11-04T09:26:19.658Z,100209.66
2022-11-04T09:28:21.411Z,100244.56
2022-11-04T09:30:23.150Z,100199.47
2022-11-04T09:32:25.183Z,100139.75
2022-11-04T09:34:26.968Z,100193.44
2022-11-04T09:36:28.742Z,100183.22
2022-11-04T09:38:31.191Z,100224.97
2022-11-04T09:40:35.913Z,100230.16
2022-11-04T09:42:47.172Z,100221.19
2022-11-04T09:47:25.903Z,100229.41
2022-11-04T09:49:32.619Z,100211.28
2022-11-04T09:54:04.769Z,100218.16
2022-11-04T09:56:11.810Z,100215.88
2022-11-04T09:58:14.066Z,100129.44
2022-11-04T10:00:16.668Z,100180.34
2022-11-04T10:02:51.854Z,100221.06
2022-11-04T10:05:15.297Z,100219.53
2022-11-04T10:07:42.111Z,100215.38
2022-11-04T10:10:02.157Z,100203.25
2022-11-04T10:12:48.892Z,100201.19
2022-11-04T10:15:28.814Z,100202.78
2022-11-04T10:17:49.315Z,100171.13
2022-11-04T10:19:53.695Z,100197.09
2022-11-04T10:22:10.928Z,100193.53
2022-11-04T10:24:15.708Z,100188.22
2022-11-04T10:26:25.109Z,100152.66
2022-11-04T10:28:38.780Z,100173.59
2022-11-04T10:30:43.325Z,100163.00
2022-11-04T10:32:48.176Z,100192.00
2022-11-04T10:35:02.029Z,100189.06
2022-11-04T10:37:04.819Z,100193.06
2022-11-04T10:39:18.480Z,100208.19
2022-11-04T10:41:39.523Z,100197.00
2022-11-04T10:43:42.011Z,100107.16
2022-11-04T10:45:59.227Z,100185.47
2022-11-04T10:48:08.735Z,100189.09
2022-11-04T10:50:33.885Z,100178.78
2022-11-04T10:52:35.889Z,100118.19
2022-11-04T10:54:43.607Z,100128.03
2022-11-04T10:56:49.606Z,100120.28
2022-11-04T10:58:53.649Z,100124.75
2022-11-04T11:00:56.657Z,100150.63
2022-11-04T11:02:58.509Z,100164.13
2022-11-04T11:05:13.311Z,100101.91
2022-11-04T11:07:16.603Z,100042.91
2022-11-04T11:09:41.090Z,100069.09
2022-11-04T11:11:49.290Z,100130.81
2022-11-04T11:13:51.171Z,100043.19
2022-11-04T11:16:12.458Z,100120.84
2022-11-04T11:18:16.987Z,100119.66
2022-11-04T11:20:24.305Z,100102.94
2022-11-04T11:22:39.647Z,100104.56
2022-11-04T11:24:41.374Z,100065.44
2022-11-04T11:26:43.356Z,100101.94
2022-11-04T11:28:58.838Z,100073.41
2022-11-04T11:31:08.537Z,100117.53
2022-11-04T11:33:23.437Z,100005.75
2022-11-04T11:35:32.957Z,100111.72
2022-11-04T11:37:34.763Z,100105.59
2022-11-04T11:39:36.654Z,100077.69
2022-11-04T11:42:13.561Z,100094.91
2022-11-04T11:44:37.116Z,100003.53
2022-11-04T11:46:38.870Z,100060.09
2022-11-04T11:48:42.232Z,100106.66
2022-11-04T11:50:55.838Z,100102.25
2022-11-04T11:53:18.296Z,100057.63
2022-11-04T11:55:38.378Z,100066.44
2022-11-04T11:57:44.649Z,100093.47
2022-11-04T12:02:42.412Z,100074.06
2022-11-04T12:10:44.635Z,100085.66
2022-11-04T12:12:56.330Z,100016.97
2022-11-04T12:15:09.710Z,100068.06
2022-11-04T12:17:43.194Z,100082.03
2022-11-04T12:20:03.239Z,100089.00
2022-11-04T12:22:26.433Z,100095.63
2022-11-04T12:24:28.157Z,100094.78
2022-11-04T12:26:50.033Z,100084.38
2022-11-04T12:28:51.712Z,100106.59
2022-11-04T12:31:12.145Z,100098.44
2022-11-04T12:33:23.152Z,100077.03
2022-11-04T12:35:33.396Z,100100.91
2022-11-04T12:37:46.904Z,100093.44
2022-11-04T12:40:12.132Z,100091.47
2022-11-04T12:42:22.261Z,100099.25
2022-11-04T12:44:35.033Z,100089.13
2022-11-04T12:47:00.175Z,100096.44
2022-11-04T12:49:11.093Z,100086.13
2022-11-04T12:51:23.105Z,100080.13
2022-11-04T12:53:57.279Z,100088.91
2022-11-04T12:56:12.608Z,100086.13
2022-11-04T12:58:23.341Z,100073.13
2022-11-04T13:00:25.138Z,100009.97
2022-11-04T13:02:51.721Z,100079.44
2022-11-04T13:05:23.328Z,100050.38
2022-11-04T13:07:41.762Z,100037.00
2022-11-04T13:09:52.376Z,100029.53
2022-11-04T13:12:06.953Z,100046.63
2022-11-04T13:14:17.751Z,100082.44
2022-11-04T13:16:19.777Z,100051.72
2022-11-04T13:18:23.847Z,100081.91
2022-11-04T13:20:42.913Z,100083.88
2022-11-04T13:22:48.753Z,99995.28
2022-11-04T13:25:04.351Z,100077.28
2022-11-04T13:27:18.412Z,100099.50
2022-11-04T13:29:21.266Z,100095.03
2022-11-04T13:31:27.800Z,100033.69
2022-11-04T13:33:29.449Z,100083.28
2022-11-04T13:35:59.728Z,100079.44
2022-11-04T13:38:56.490Z,99974.53
2022-11-04T13:40:58.183Z,100091.63
2022-11-04T13:43:36.372Z,100083.28
2022-11-04T13:45:47.511Z,100084.78
2022-11-04T13:47:55.636Z,100068.03
2022-11-04T13:49:57.453Z,100084.81
2022-11-04T13:52:09.328Z,100082.00
2022-11-04T13:54:54.000Z,100076.69
2022-11-04T13:57:22.810Z,99962.16
2022-11-04T13:59:29.505Z,100074.03
2022-11-04T14:01:34.022Z,100066.41
2022-11-04T14:03:50.735Z,100057.97
2022-11-04T14:06:01.402Z,100064.09
2022-11-04T14:08:03.122Z,100060.59
2022-11-04T14:10:37.570Z,100014.97
2022-11-04T14:12:39.432Z,100023.09
2022-11-04T14:14:46.750Z,100008.53
2022-11-04T14:16:48.578Z,100013.00
2022-11-04T14:18:52.474Z,100022.91
2022-11-04T14:21:12.694Z,100068.34
2022-11-04T14:23:23.885Z,100039.00
2022-11-04T14:25:40.354Z,100058.41
2022-11-04T14:27:42.192Z,100065.34
2022-11-04T14:29:50.857Z,100051.59
2022-11-04T14:31:58.214Z,100055.44
2022-11-04T14:34:01.111Z,100006.72
2022-11-04T14:36:21.513Z,100070.03
2022-11-04T14:38:34.463Z,100056.56
2022-11-04T14:40:51.883Z,100046.50
2022-11-04T14:42:56.807Z,100074.84
2022-11-04T14:44:58.765Z,100074.34
2022-11-04T14:47:29.287Z,100053.31
2022-11-04T14:49:38.145Z,99985.19
2022-11-04T14:51:41.403Z,100053.97
2022-11-04T14:53:43.446Z,100072.03
2022-11-04T14:55:45.171Z,100057.44
2022-11-04T14:57:52.276Z,100064.94
2022-11-04T14:59:54.061Z,100051.50
2022-11-04T15:01:56.293Z,100090.47
2022-11-04T15:04:14.124Z,100080.53
2022-11-04T15:06:34.845Z,100088.31
2022-11-04T15:08:42.665Z,100084.00
2022-11-04T15:10:49.753Z,100087.47
2022-11-04T15:12:53.857Z,100094.63
2022-11-04T15:14:56.217Z,100097.94
2022-11-04T15:16:59.462Z,100072.25
2022-11-04T15:19:01.247Z,100045.88
2022-11-04T15:21:04.804Z,100090.66
2022-11-04T15:23:12.441Z,100036.25
2022-11-04T15:25:14.455Z,100076.38
2022-11-04T15:27:28.579Z,100106.91
2022-11-04T15:29:30.612Z,100038.25
2022-11-04T15:31:34.674Z,100070.41
2022-11-04T15:33:41.592Z,100073.06
2022-11-04T15:35:43.443Z,100025.97
2022-11-04T15:37:45.577Z,100030.63
2022-11-04T15:39:51.137Z,100037.91
2022-11-04T15:41:58.135Z,100094.78
2022-11-04T15:44:00.772Z,99972.09
2022-11-04T15:46:03.036Z,100065.13
2022-11-04T15:48:29.473Z,100095.63
2022-11-04T15:50:31.868Z,99994.50
2022-11-04T15:52:33.642Z,100059.47
2022-11-04T15:54:38.528Z,100076.06
2022-11-04T15:56:48.407Z,100040.72
2022-11-04T15:58:51.831Z,100090.97
2022-11-04T16:00:56.026Z,100013.88
2022-11-04T16:02:59.720Z,100096.44
2022-11-04T16:05:06.212Z,100089.97
2022-11-04T16:07:10.759Z,100090.97
2022-11-04T16:09:12.423Z,100084.34
2022-11-04T16:11:20.105Z,100064.94
2022-11-04T16:13:24.261Z,100085.16
2022-11-04T16:15:38.546Z,100027.47
2022-11-04T16:17:44.649Z,100052.00
2022-11-04T16:19:49.369Z,100093.31
2022-11-04T16:22:03.648Z,100058.97
2022-11-04T16:24:15.708Z,100090.81
2022-11-04T16:26:24.892Z,100092.78
2022-11-04T16:28:30.128Z,99947.44
2022-11-04T16:30:32.150Z,100029.97
2022-11-04T16:32:42.748Z,100079.19
2022-11-04T16:34:46.389Z,100059.13
2022-11-04T16:36:48.113Z,100096.94
2022-11-04T16:38:57.442Z,100039.06
2022-11-04T16:40:59.226Z,100001.44
2022-11-04T16:43:01.073Z,100022.16
2022-11-04T16:45:04.643Z,100091.66
2022-11-04T16:47:06.599Z,100089.00
2022-11-04T16:49:11.684Z,100050.34
2022-11-04T16:51:21.989Z,100091.97
2022-11-04T16:53:23.876Z,99991.31
2022-11-04T16:55:27.137Z,100039.59
2022-11-04T16:57:28.903Z,100005.09
2022-11-04T16:59:30.811Z,100067.94
2022-11-04T17:01:32.678Z,100066.13
2022-11-04T17:03:34.556Z,100064.13
2022-11-04T17:05:36.440Z,100073.25
2022-11-04T17:07:52.030Z,100019.66
2022-11-04T17:09:55.200Z,100059.16
2022-11-04T17:11:57.076Z,100059.97
2022-11-04T17:13:58.785Z,99991.16
2022-11-04T17:16:00.601Z,100088.50
2022-11-04T17:18:02.568Z,100032.63
2022-11-04T17:20:04.730Z,99939.28
2022-11-04T17:22:08.114Z,100082.03
2022-11-04T17:24:11.113Z,100087.34
2022-11-04T17:26:12.979Z,100091.16
2022-11-04T17:28:14.844Z,100053.53
2022-11-04T17:30:17.583Z,100033.44
2022-11-04T17:32:19.350Z,99960.63
2022-11-04T17:34:21.473Z,99970.88
2022-11-04T17:36:23.260Z,100068.75
2022-11-04T17:38:24.998Z,100016.38
2022-11-04T17:40:26.709Z,100080.88
2022-11-04T17:42:28.595Z,100047.88
2022-11-04T17:44:30.382Z,100027.63
2022-11-04T17:46:34.656Z,100062.47
2022-11-04T17:48:36.535Z,100055.81
2022-11-04T17:50:39.694Z,100074.22
2022-11-04T17:52:41.468Z,100028.47
2022-11-04T17:54:43.569Z,100030.28
2022-11-04T17:56:45.598Z,99946.34
2022-11-04T17:58:48.366Z,100074.41
2022-11-04T18:00:50.346Z,100045.72
2022-11-04T18:02:52.230Z,100029.13
2022-11-04T18:04:54.058Z,100041.56
2022-11-04T18:07:01.393Z,100055.00
2022-11-04T18:09:05.208Z,100060.66
2022-11-04T18:11:10.261Z,100063.94
2022-11-04T18:13:12.600Z,100022.00
2022-11-04T18:15:15.397Z,100056.34
2022-11-04T18:17:17.274Z,100010.88
2022-11-04T18:19:21.048Z,100037.09
2022-11-04T18:21:22.762Z,99985.00
2022-11-04T18:23:24.618Z,99993.94
2022-11-04T18:25:26.601Z,100035.09
2022-11-04T18:27:28.674Z,100030.44
2022-11-04T18:29:30.439Z,100052.19
2022-11-04T18:31:35.393Z,99957.69
2022-11-04T18:33:37.857Z,100047.38
2022-11-04T18:35:39.570Z,100006.41
2022-11-04T18:37:46.813Z,100043.91
2022-11-04T18:39:48.929Z,100002.59
2022-11-04T18:41:50.685Z,100072.09
2022-11-04T18:43:52.536Z,100041.41
2022-11-04T18:45:54.489Z,100053.84
2022-11-04T18:47:56.233Z,99994.63
2022-11-04T18:49:58.117Z,99951.16
2022-11-04T18:51:59.838Z,100011.06
2022-11-04T18:54:07.205Z,100056.47
2022-11-04T18:56:11.291Z,100042.53
2022-11-04T18:58:13.153Z,100070.06
2022-11-04T19:00:17.274Z,100071.38
2022-11-04T19:02:21.988Z,100079.84
2022-11-04T19:04:23.822Z,100088.75
2022-11-04T19:06:34.096Z,100018.91
2022-11-04T19:08:36.220Z,100092.22
2022-11-04T19:10:57.861Z,100092.22
2022-11-04T19:13:01.107Z,100050.22
2022-11-04T19:15:03.735Z,100072.81
2022-11-04T19:17:05.586Z,100074.81
2022-11-04T19:19:09.315Z,100079.91
2022-11-04T19:21:12.108Z,100074.75
2022-11-04T19:23:13.981Z,100011.94
2022-11-04T19:25:15.804Z,100062.84
2022-11-04T19:27:17.584Z,100040.91
2022-11-04T19:29:19.516Z,100005.09
2022-11-04T19:31:23.896Z,100015.88
2022-11-04T19:33:26.190Z,100053.50
2022-11-04T19:35:28.882Z,100067.66
2022-11-04T19:37:30.671Z,100029.06
2022-11-04T19:39:32.723Z,100059.41
2022-11-04T19:41:34.607Z,99943.59
2022-11-04T19:43:36.312Z,100071.69
2022-11-04T19:45:39.274Z,100023.47
2022-11-04T19:47:41.075Z,100067.44
2022-11-04T19:49:42.870Z,99955.72
2022-11-04T19:51:44.902Z,100061.97
2022-11-04T19:53:46.752Z,100026.56
2022-11-04T19:55:53.964Z,100062.72
2022-11-04T19:57:55.753Z,100024.41
2022-11-04T19:59:57.493Z,100032.53
2022-11-04T20:01:59.644Z,100012.06
2022-11-04T20:04:02.434Z,99981.56
2022-11-04T20:06:04.329Z,100038.81
2022-11-04T20:08:07.142Z,100038.66
2022-11-04T20:10:09.735Z,100029.50
2022-11-04T20:12:12.646Z,100060.63
2022-11-04T20:14:17.761Z,100013.19
2022-11-04T20:16:21.035Z,100072.69
2022-11-04T20:18:23.108Z,100023.25
2022-11-04T20:20:24.812Z,100032.38
2022-11-04T20:22:26.570Z,100038.19
2022-11-04T20:24:28.341Z,99993.16
2022-11-04T20:26:31.400Z,100017.75
2022-11-04T20:28:33.115Z,100053.09
2022-11-04T20:30:38.719Z,100009.22
2022-11-04T20:32:40.501Z,100060.75
2022-11-04T20:34:42.269Z,100031.34
2022-11-04T20:36:43.999Z,100016.94
2022-11-04T20:38:45.747Z,99998.09
2022-11-04T20:40:47.477Z,100031.97
2022-11-04T20:42:49.210Z,100071.50
2022-11-04T20:44:50.950Z,100050.06
2022-11-04T20:46:52.747Z,100043.28
2022-11-04T20:48:55.442Z,100024.72
2022-11-04T20:50:57.368Z,100051.03
2022-11-04T20:52:59.140Z,100080.44
2022-11-04T20:55:00.864Z,100061.31
2022-11-04T20:57:02.643Z,100048.13
2022-11-04T20:59:05.901Z,100058.56
2022-11-04T21:01:10.546Z,100052.06
2022-11-04T21:03:12.307Z,100069.19
2022-11-04T21:05:14.063Z,100047.75
2022-11-04T21:07:15.837Z,99990.97
2022-11-04T21:09:20.133Z,100091.19
2022-11-04T21:11:21.860Z,100090.13
2022-11-04T21:13:23.608Z,100087.84
2022-11-04T21:15:25.400Z,100040.72
2022-11-04T21:17:27.141Z,100101.53
2022-11-04T21:19:28.872Z,100084.78
2022-11-04T21:21:30.752Z,100034.47
2022-11-04T21:23:33.379Z,100093.75
2022-11-04T21:25:44.368Z,100066.91
2022-11-04T21:27:46.071Z,99998.72
2022-11-04T21:29:47.850Z,100082.63
2022-11-04T21:31:49.712Z,100056.78
2022-11-04T21:33:52.447Z,100016.31
2022-11-04T21:35:54.278Z,100053.75
2022-11-04T21:37:56.447Z,100030.81
2022-11-04T21:39:58.174Z,100044.47
2022-11-04T21:42:00.075Z,100038.50
2022-11-04T21:44:04.147Z,100079.34
2022-11-04T21:46:11.747Z,100081.16
2022-11-04T21:48:13.679Z,99934.41
2022-11-04T21:50:18.230Z,99960.69
2022-11-04T21:52:20.132Z,100029.06
2022-11-04T21:54:22.043Z,100006.03
2022-11-04T21:56:28.837Z,100057.72
2022-11-04T21:58:30.985Z,99999.31
2022-11-04T22:00:33.044Z,100045.94
2022-11-04T22:02:37.037Z,100059.00
2022-11-04T22:04:38.932Z,100040.56
2022-11-04T22:06:40.726Z,100038.31
2022-11-04T22:08:47.854Z,100060.28
2022-11-04T22:10:49.720Z,100043.50
2022-11-04T22:12:51.864Z,100025.69
2022-11-04T22:14:53.558Z,100019.25
2022-11-04T22:16:55.414Z,100010.38
2022-11-04T22:18:59.937Z,100061.34
2022-11-04T22:21:05.093Z,100009.66
2022-11-04T22:23:07.118Z,100032.22
2022-11-04T22:25:09.145Z,99984.25
2022-11-04T22:27:10.977Z,100047.19
2022-11-04T22:29:12.853Z,99932.75
2022-11-04T22:31:18.619Z,100038.44
2022-11-04T22:33:20.551Z,99875.63
2022-11-04T22:35:22.351Z,100025.22
2022-11-04T22:37:24.468Z,99948.00
2022-11-04T22:39:26.279Z,99954.44
2022-11-04T22:41:31.400Z,100036.47
2022-11-04T22:43:33.782Z,99910.88
2022-11-04T22:45:37.192Z,99965.28
2022-11-04T22:47:39.059Z,99970.06
2022-11-04T22:49:40.910Z,99985.84
2022-11-04T22:51:42.688Z,99944.16
2022-11-04T22:53:45.331Z,100053.66
2022-11-04T22:55:47.379Z,100011.63
2022-11-04T22:57:49.124Z,100022.72
2022-11-04T22:59:50.870Z,100049.13
2022-11-04T23:01:52.843Z,100045.72
2022-11-04T23:03:55.032Z,100028.91
2022-11-04T23:05:58.496Z,99959.09
2022-11-04T23:08:01.023Z,100020.53
2022-11-04T23:10:02.852Z,100052.09
2022-11-04T23:12:04.872Z,100050.94
2022-11-04T23:14:06.787Z,100059.94
2022-11-04T23:16:12.863Z,100036.78
2022-11-04T23:18:14.866Z,100063.34
2022-11-04T23:20:16.690Z,100036.09
2022-11-04T23:22:18.401Z,100006.81
2022-11-04T23:24:20.115Z,100061.31
2022-11-04T23:26:27.575Z,99994.00
2022-11-04T23:28:29.552Z,100033.22
2022-11-04T23:30:37.232Z,100012.56
2022-11-04T23:32:39.204Z,99927.22
2022-11-04T23:34:41.361Z,100046.22
2022-11-04T23:36:43.217Z,99955.25
2022-11-04T23:38:50.073Z,100047.94
2022-11-04T23:40:55.962Z,99976.09
2022-11-04T23:42:58.148Z,100039.81
2022-11-04T23:44:59.892Z,100056.88
2022-11-04T23:47:01.768Z,99934.94
2022-11-04T23:49:04.746Z,100010.28
2022-11-04T23:51:06.455Z,100012.09
2022-11-04T23:53:12.258Z,100040.19
2022-11-04T23:55:14.241Z,100042.91
2022-11-04T23:57:18.132Z,100035.38
2022-11-04T23:59:20.629Z,100002.81
